createdAt,value
2017-08-19T00:00:47.526Z,22.53
2017-08-19T00:01:47.555Z,22.50
2017-08-19T00:02:47.574Z,22.54
2017-08-19T00:03:47.597Z,22.47
2017-08-19T00:04:47.620Z,22.51
2017-08-19T00:05:47.649Z,22.55
2017-08-19T00:06:47.667Z,22.57
2017-08-19T00:07:47.698Z,22.55
2017-08-19T00:08:47.730Z,22.53
2017-08-19T00:09:47.735Z,22.51
2017-08-19T00:10:47.760Z,22.48
2017-08-19T00:11:47.780Z,22.53
2017-08-19T00:12:47.805Z,22.50
2017-08-19T00:13:47.829Z,22.54
2017-08-19T00:14:47.855Z,22.48
2017-08-19T00:15:47.874Z,22.51
2017-08-19T00:16:47.901Z,22.54
2017-08-19T00:17:47.922Z,22.45
2017-08-19T00:18:47.948Z,22.48
2017-08-19T00:19:47.969Z,22.45
2017-08-19T00:20:47.996Z,22.38
2017-08-19T00:21:48.019Z,22.48
2017-08-19T00:22:48.041Z,22.39
2017-08-19T00:23:48.063Z,22.51
2017-08-19T00:24:48.087Z,22.48
2017-08-19T00:25:48.109Z,22.39
2017-08-19T00:26:48.133Z,22.48
2017-08-19T00:27:48.155Z,22.39
2017-08-19T00:28:48.181Z,22.44
2017-08-19T00:29:48.208Z,22.41
2017-08-19T00:30:48.225Z,22.44
2017-08-19T00:31:48.250Z,22.41
2017-08-19T00:32:48.271Z,22.41
2017-08-19T00:33:48.300Z,22.39
2017-08-19T00:34:48.322Z,22.36
2017-08-19T00:35:48.343Z,22.38
2017-08-19T00:36:48.369Z,22.43
2017-08-19T00:37:48.390Z,22.43
2017-08-19T00:38:48.412Z,22.45
2017-08-19T00:39:48.440Z,22.47
2017-08-19T00:40:48.460Z,22.41
2017-08-19T00:41:48.481Z,22.35
2017-08-19T00:42:48.513Z,22.33
2017-08-19T00:43:48.529Z,22.32
2017-08-19T00:44:48.552Z,22.43
2017-08-19T00:45:48.577Z,22.33
2017-08-19T00:46:48.604Z,22.35
2017-08-19T00:47:48.623Z,22.36
2017-08-19T00:48:48.649Z,22.30
2017-08-19T00:49:48.670Z,22.29
2017-08-19T00:50:48.694Z,22.32
2017-08-19T00:51:48.713Z,22.32
2017-08-19T00:52:48.739Z,22.39
2017-08-19T00:53:48.760Z,22.32
2017-08-19T00:54:48.786Z,22.29
2017-08-19T00:55:48.807Z,22.28
2017-08-19T00:56:48.841Z,22.20
2017-08-19T00:57:48.862Z,22.23
2017-08-19T00:58:48.883Z,22.28
2017-08-19T00:59:48.900Z,22.26
2017-08-19T01:00:48.922Z,22.30
2017-08-19T01:01:48.946Z,22.25
2017-08-19T01:02:48.970Z,22.22
2017-08-19T01:03:48.991Z,22.25
2017-08-19T01:04:49.021Z,22.25
2017-08-19T01:05:49.041Z,22.26
2017-08-19T01:06:49.063Z,22.26
2017-08-19T01:07:49.087Z,22.22
2017-08-19T01:08:49.113Z,22.22
2017-08-19T01:09:49.133Z,22.22
2017-08-19T01:10:49.161Z,22.23
2017-08-19T01:11:49.181Z,22.17
2017-08-19T01:12:49.201Z,22.17
2017-08-19T01:13:49.229Z,22.17
2017-08-19T01:14:49.247Z,22.10
2017-08-19T01:15:49.272Z,22.13
2017-08-19T01:16:49.297Z,22.14
2017-08-19T01:17:49.321Z,22.13
2017-08-19T01:18:49.343Z,22.08
2017-08-19T01:19:49.362Z,22.10
2017-08-19T01:20:49.388Z,22.11
2017-08-19T01:21:49.417Z,22.11
2017-08-19T01:22:49.441Z,22.08
2017-08-19T01:23:49.461Z,22.15
2017-08-19T01:24:49.480Z,22.10
2017-08-19T01:25:49.503Z,22.14
2017-08-19T01:26:49.524Z,22.15
2017-08-19T01:27:49.550Z,22.06
2017-08-19T01:28:49.582Z,22.06
2017-08-19T01:29:49.601Z,22.14
2017-08-19T01:30:49.618Z,22.14
2017-08-19T01:31:49.654Z,22.08
2017-08-19T01:32:49.665Z,22.13
2017-08-19T01:33:49.691Z,22.13
2017-08-19T01:34:49.722Z,22.08
2017-08-19T01:35:49.735Z,22.08
2017-08-19T01:36:49.759Z,22.13
2017-08-19T01:37:49.785Z,22.07
2017-08-19T01:38:49.804Z,22.04
2017-08-19T01:39:49.827Z,22.00
2017-08-19T01:40:49.851Z,22.02
2017-08-19T01:41:49.877Z,22.07
2017-08-19T01:42:49.898Z,22.10
2017-08-19T01:43:49.922Z,22.08
2017-08-19T01:44:49.945Z,22.06
2017-08-19T01:45:49.965Z,22.07
2017-08-19T01:46:49.985Z,21.95
2017-08-19T01:47:50.010Z,22.04
2017-08-19T01:48:50.035Z,22.06
2017-08-19T01:49:50.059Z,22.04
2017-08-19T01:50:50.082Z,21.95
2017-08-19T01:51:50.108Z,21.98
2017-08-19T01:52:50.131Z,21.95
2017-08-19T01:53:50.157Z,21.98
2017-08-19T01:54:50.177Z,21.98
2017-08-19T01:55:50.193Z,21.95
2017-08-19T01:56:50.221Z,21.93
2017-08-19T01:57:50.241Z,21.92
2017-08-19T01:58:50.264Z,21.95
2017-08-19T01:59:50.285Z,21.95
2017-08-19T02:00:50.312Z,21.99
2017-08-19T02:01:50.330Z,21.99
2017-08-19T02:02:50.358Z,22.04
2017-08-19T02:03:50.378Z,22.02
2017-08-19T02:04:50.402Z,22.04
2017-08-19T02:05:50.429Z,22.02
2017-08-19T02:06:50.451Z,21.98
2017-08-19T02:07:50.469Z,21.95
2017-08-19T02:08:50.492Z,21.98
2017-08-19T02:09:50.523Z,21.98
2017-08-19T02:10:50.544Z,21.95
2017-08-19T02:11:50.566Z,21.98
2017-08-19T02:12:50.588Z,21.95
2017-08-19T02:13:50.613Z,21.95
2017-08-19T02:14:50.648Z,21.98
2017-08-19T02:15:50.656Z,22.00
2017-08-19T02:16:50.676Z,21.96
2017-08-19T02:17:50.700Z,21.96
2017-08-19T02:18:50.724Z,21.93
2017-08-19T02:19:50.753Z,21.95
2017-08-19T02:20:50.772Z,21.98
2017-08-19T02:21:50.792Z,21.98
2017-08-19T02:22:50.813Z,22.00
2017-08-19T02:23:50.841Z,21.88
2017-08-19T02:24:50.861Z,21.95
2017-08-19T02:25:50.890Z,21.99
2017-08-19T02:26:50.906Z,21.98
2017-08-19T02:27:50.927Z,21.96
2017-08-19T02:28:50.954Z,21.95
2017-08-19T02:29:50.976Z,21.88
2017-08-19T02:30:51.005Z,21.91
2017-08-19T02:31:51.022Z,21.91
2017-08-19T02:32:51.049Z,21.93
2017-08-19T02:33:51.069Z,21.93
2017-08-19T02:34:51.093Z,21.92
2017-08-19T02:35:51.113Z,21.79
2017-08-19T02:36:51.134Z,21.79
2017-08-19T02:37:51.162Z,21.82
2017-08-19T02:38:51.184Z,21.88
2017-08-19T02:39:51.206Z,21.83
2017-08-19T02:40:51.226Z,21.83
2017-08-19T02:41:51.250Z,21.89
2017-08-19T02:42:51.281Z,21.88
2017-08-19T02:43:51.297Z,21.89
2017-08-19T02:44:51.319Z,21.83
2017-08-19T02:45:51.341Z,21.85
2017-08-19T02:46:51.367Z,21.85
2017-08-19T02:47:51.387Z,21.85
2017-08-19T02:48:51.412Z,21.83
2017-08-19T02:49:51.437Z,21.80
2017-08-19T02:50:51.458Z,21.89
2017-08-19T02:51:51.482Z,21.83
2017-08-19T02:52:51.502Z,21.80
2017-08-19T02:53:51.526Z,21.89
2017-08-19T02:54:51.548Z,21.75
2017-08-19T02:55:51.568Z,21.80
2017-08-19T02:56:51.593Z,21.76
2017-08-19T02:57:51.617Z,21.79
2017-08-19T02:58:51.692Z,21.79
2017-08-19T02:59:51.664Z,21.82
2017-08-19T03:00:51.710Z,21.80
2017-08-19T03:01:51.710Z,21.73
2017-08-19T03:02:51.732Z,21.79
2017-08-19T03:03:51.752Z,21.79
2017-08-19T03:04:51.782Z,21.77
2017-08-19T03:05:51.799Z,21.80
2017-08-19T03:06:51.819Z,21.75
2017-08-19T03:07:51.846Z,21.73
2017-08-19T03:08:51.874Z,21.76
2017-08-19T03:09:51.889Z,21.77
2017-08-19T03:10:51.920Z,21.77
2017-08-19T03:11:51.934Z,21.75
2017-08-19T03:12:51.966Z,21.73
2017-08-19T03:13:51.981Z,21.69
2017-08-19T03:14:52.003Z,21.72
2017-08-19T03:15:52.032Z,21.76
2017-08-19T03:16:52.106Z,21.73
2017-08-19T03:17:52.072Z,21.73
2017-08-19T03:18:52.094Z,21.76
2017-08-19T03:19:52.115Z,21.72
2017-08-19T03:20:52.144Z,21.70
2017-08-19T03:21:52.188Z,21.73
2017-08-19T03:22:52.245Z,21.72
2017-08-19T03:23:52.224Z,21.67
2017-08-19T03:24:52.233Z,21.72
2017-08-19T03:25:52.264Z,21.70
2017-08-19T03:26:52.281Z,21.72
2017-08-19T03:27:52.298Z,21.60
2017-08-19T03:28:52.348Z,21.69
2017-08-19T03:29:52.356Z,21.55
2017-08-19T03:30:52.379Z,21.72
2017-08-19T03:31:52.404Z,21.72
2017-08-19T03:32:52.417Z,21.66
2017-08-19T03:33:52.447Z,21.58
2017-08-19T03:34:52.456Z,21.64
2017-08-19T03:35:52.479Z,21.57
2017-08-19T03:36:52.504Z,21.60
2017-08-19T03:37:52.523Z,21.64
2017-08-19T03:38:52.550Z,21.61
2017-08-19T03:39:52.569Z,21.62
2017-08-19T03:40:52.593Z,21.62
2017-08-19T03:41:52.615Z,21.58
2017-08-19T03:42:52.640Z,21.62
2017-08-19T03:43:52.659Z,21.60
2017-08-19T03:44:52.683Z,21.57
2017-08-19T03:45:52.707Z,21.58
2017-08-19T03:46:52.729Z,21.58
2017-08-19T03:47:52.757Z,21.55
2017-08-19T03:48:52.776Z,21.55
2017-08-19T03:49:52.794Z,21.55
2017-08-19T03:50:52.822Z,21.57
2017-08-19T03:51:52.841Z,21.51
2017-08-19T03:52:52.862Z,21.48
2017-08-19T03:53:52.888Z,21.50
2017-08-19T03:54:52.922Z,21.50
2017-08-19T03:55:52.934Z,21.51
2017-08-19T03:56:52.954Z,21.51
2017-08-19T03:57:52.986Z,21.46
2017-08-19T03:58:53.002Z,21.57
2017-08-19T03:59:53.025Z,21.50
2017-08-19T04:00:53.051Z,21.45
2017-08-19T04:01:53.069Z,21.51
2017-08-19T04:02:53.090Z,21.55
2017-08-19T04:03:53.126Z,21.45
2017-08-19T04:04:53.138Z,21.57
2017-08-19T04:05:53.160Z,21.54
2017-08-19T04:06:53.187Z,21.61
2017-08-19T04:07:53.207Z,21.51
2017-08-19T04:08:53.237Z,21.51
2017-08-19T04:09:53.269Z,21.55
2017-08-19T04:10:53.279Z,21.55
2017-08-19T04:11:53.296Z,21.51
2017-08-19T04:12:53.319Z,21.50
2017-08-19T04:13:53.345Z,21.55
2017-08-19T04:14:53.364Z,21.46
2017-08-19T04:15:53.384Z,21.51
2017-08-19T04:16:53.409Z,21.54
2017-08-19T04:17:53.433Z,21.45
2017-08-19T04:18:53.455Z,21.51
2017-08-19T04:19:53.476Z,21.52
2017-08-19T04:20:53.499Z,21.54
2017-08-19T04:21:53.522Z,21.43
2017-08-19T04:22:53.549Z,21.45
2017-08-19T04:23:53.566Z,21.45
2017-08-19T04:24:53.592Z,21.51
2017-08-19T04:25:53.613Z,21.51
2017-08-19T04:26:53.635Z,21.51
2017-08-19T04:27:53.656Z,21.51
2017-08-19T04:28:53.681Z,21.45
2017-08-19T04:29:53.707Z,21.50
2017-08-19T04:30:53.725Z,21.43
2017-08-19T04:31:53.746Z,21.48
2017-08-19T04:32:53.772Z,21.45
2017-08-19T04:33:53.793Z,21.48
2017-08-19T04:34:53.830Z,21.46
2017-08-19T04:35:53.848Z,21.48
2017-08-19T04:36:53.861Z,21.45
2017-08-19T04:37:53.882Z,21.46
2017-08-19T04:38:53.908Z,21.48
2017-08-19T04:39:53.932Z,21.46
2017-08-19T04:40:53.955Z,21.45
2017-08-19T04:41:53.973Z,21.48
2017-08-19T04:42:54.003Z,21.46
2017-08-19T04:43:54.020Z,21.50
2017-08-19T04:44:54.040Z,21.45
2017-08-19T04:45:54.064Z,21.40
2017-08-19T04:46:54.091Z,21.43
2017-08-19T04:47:54.111Z,21.45
2017-08-19T04:48:54.132Z,21.43
2017-08-19T04:49:54.156Z,21.45
2017-08-19T04:50:54.178Z,21.40
2017-08-19T04:51:54.201Z,21.45
2017-08-19T04:52:54.223Z,21.40
2017-08-19T04:53:54.246Z,21.40
2017-08-19T04:54:54.271Z,21.45
2017-08-19T04:55:54.290Z,21.40
2017-08-19T04:56:54.311Z,21.43
2017-08-19T04:57:54.341Z,21.43
2017-08-19T04:58:54.359Z,21.37
2017-08-19T04:59:54.382Z,21.43
2017-08-19T05:00:54.414Z,21.46
2017-08-19T05:01:54.429Z,21.45
2017-08-19T05:02:54.463Z,21.39
2017-08-19T05:03:54.472Z,21.46
2017-08-19T05:04:54.496Z,21.45
2017-08-19T05:05:54.519Z,21.51
2017-08-19T05:06:54.540Z,21.50
2017-08-19T05:07:54.562Z,21.58
2017-08-19T05:08:54.594Z,21.50
2017-08-19T05:09:54.609Z,21.60
2017-08-19T05:10:54.643Z,21.64
2017-08-19T05:11:54.658Z,21.62
2017-08-19T05:12:54.761Z,21.72
2017-08-19T05:13:54.701Z,21.67
2017-08-19T05:14:54.722Z,21.75
2017-08-19T05:15:54.747Z,21.79
2017-08-19T05:16:54.771Z,21.77
2017-08-19T05:17:54.791Z,21.80
2017-08-19T05:18:54.815Z,21.92
2017-08-19T05:19:54.838Z,21.88
2017-08-19T05:20:54.859Z,21.88
2017-08-19T05:21:54.882Z,21.92
2017-08-19T05:22:54.918Z,21.83
2017-08-19T05:23:54.927Z,21.88
2017-08-19T05:24:54.953Z,21.93
2017-08-19T05:25:54.980Z,22.06
2017-08-19T05:26:54.998Z,22.17
2017-08-19T05:27:55.030Z,22.20
2017-08-19T05:28:55.051Z,22.36
2017-08-19T05:29:55.071Z,22.32
2017-08-19T05:30:55.097Z,22.47
2017-08-19T05:31:55.120Z,22.36
2017-08-19T05:32:55.140Z,22.51
2017-08-19T05:33:55.169Z,22.51
2017-08-19T05:34:55.193Z,22.53
2017-08-19T05:35:55.213Z,22.55
2017-08-19T05:36:55.241Z,22.65
2017-08-19T05:37:55.270Z,22.65
2017-08-19T05:38:55.297Z,22.68
2017-08-19T05:39:55.315Z,22.72
2017-08-19T05:40:55.337Z,22.87
2017-08-19T05:41:55.356Z,22.85
2017-08-19T05:42:55.383Z,22.93
2017-08-19T05:43:55.404Z,22.96
2017-08-19T05:44:55.431Z,23.02
2017-08-19T05:45:55.452Z,23.08
2017-08-19T05:46:55.478Z,23.17
2017-08-19T05:47:55.499Z,23.15
2017-08-19T05:48:55.538Z,23.20
2017-08-19T05:49:55.565Z,23.36
2017-08-19T05:50:55.582Z,23.51
2017-08-19T05:51:55.610Z,23.54
2017-08-19T05:52:55.625Z,23.59
2017-08-19T05:53:55.650Z,23.74
2017-08-19T05:54:55.703Z,23.74
2017-08-19T05:55:55.700Z,23.65
2017-08-19T05:56:55.723Z,23.77
2017-08-19T05:57:55.753Z,23.87
2017-08-19T05:58:55.783Z,23.78
2017-08-19T05:59:55.804Z,23.87
2017-08-19T06:00:55.830Z,23.88
2017-08-19T06:01:55.849Z,23.92
2017-08-19T06:02:55.878Z,23.95
2017-08-19T06:03:55.912Z,23.99
2017-08-19T06:04:55.926Z,24.01
2017-08-19T06:05:55.957Z,23.96
2017-08-19T06:06:55.975Z,23.98
2017-08-19T06:07:56.008Z,24.10
2017-08-19T06:08:56.029Z,24.01
2017-08-19T06:09:56.061Z,24.01
2017-08-19T06:10:56.074Z,24.13
2017-08-19T06:11:56.102Z,24.10
2017-08-19T06:12:56.127Z,24.11
2017-08-19T06:13:56.151Z,24.26
2017-08-19T06:14:56.188Z,24.30
2017-08-19T06:15:56.211Z,24.30
2017-08-19T06:16:56.226Z,24.38
2017-08-19T06:17:56.250Z,24.43
2017-08-19T06:18:56.286Z,24.43
2017-08-19T06:19:56.310Z,24.43
2017-08-19T06:20:56.332Z,24.38
2017-08-19T06:21:56.362Z,24.39
2017-08-19T06:22:56.382Z,24.43
2017-08-19T06:23:56.414Z,24.51
2017-08-19T06:24:56.430Z,24.36
2017-08-19T06:25:56.462Z,24.42
2017-08-19T06:26:56.483Z,24.45
2017-08-19T06:27:56.511Z,24.66
2017-08-19T06:28:56.531Z,24.39
2017-08-19T06:29:56.567Z,24.39
2017-08-19T06:30:56.589Z,24.42
2017-08-19T06:31:56.617Z,24.45
2017-08-19T06:32:56.674Z,24.60
2017-08-19T06:33:56.671Z,24.65
2017-08-19T06:34:56.704Z,24.61
2017-08-19T06:35:56.722Z,24.63
2017-08-19T06:36:56.744Z,24.63
2017-08-19T06:37:56.779Z,24.76
2017-08-19T06:38:56.790Z,24.89
2017-08-19T06:39:56.818Z,24.86
2017-08-19T06:40:56.843Z,24.86
2017-08-19T06:41:56.868Z,24.91
2017-08-19T06:42:56.896Z,24.76
2017-08-19T06:43:56.921Z,24.74
2017-08-19T06:44:56.944Z,24.80
2017-08-19T06:45:56.975Z,24.78
2017-08-19T06:46:57.001Z,24.78
2017-08-19T06:47:57.051Z,24.80
2017-08-19T06:48:57.057Z,24.86
2017-08-19T06:49:57.074Z,24.88
2017-08-19T06:50:57.109Z,24.89
2017-08-19T06:51:57.128Z,24.74
2017-08-19T06:52:57.162Z,24.77
2017-08-19T06:53:57.180Z,24.95
2017-08-19T06:54:57.204Z,24.92
2017-08-19T06:55:57.228Z,24.88
2017-08-19T06:56:57.258Z,24.98
2017-08-19T06:57:57.287Z,24.92
2017-08-19T06:58:57.317Z,24.93
2017-08-19T06:59:57.338Z,24.91
2017-08-19T07:00:57.361Z,24.99
2017-08-19T07:01:57.387Z,24.93
2017-08-19T07:02:57.429Z,24.95
2017-08-19T07:03:57.439Z,24.99
2017-08-19T07:04:57.466Z,24.88
2017-08-19T07:05:57.493Z,24.89
2017-08-19T07:06:57.522Z,24.92
2017-08-19T07:07:57.550Z,24.96
2017-08-19T07:08:57.579Z,24.96
2017-08-19T07:09:57.599Z,24.99
2017-08-19T07:10:57.622Z,25.01
2017-08-19T07:11:57.646Z,24.92
2017-08-19T07:12:57.673Z,25.04
2017-08-19T07:13:57.718Z,24.93
2017-08-19T07:14:57.730Z,24.93
2017-08-19T07:15:57.754Z,24.98
2017-08-19T07:16:57.777Z,24.96
2017-08-19T07:17:57.814Z,24.95
2017-08-19T07:18:57.828Z,25.04
2017-08-19T07:19:57.854Z,25.04
2017-08-19T07:20:57.883Z,24.95
2017-08-19T07:21:57.908Z,25.04
2017-08-19T07:22:57.934Z,24.84
2017-08-19T07:23:57.957Z,24.91
2017-08-19T07:24:57.982Z,24.89
2017-08-19T07:25:58.016Z,25.10
2017-08-19T07:26:58.036Z,24.86
2017-08-19T07:27:58.061Z,24.92
2017-08-19T07:28:58.105Z,24.95
2017-08-19T07:29:58.113Z,25.10
2017-08-19T07:30:58.144Z,25.25
2017-08-19T07:31:58.167Z,25.23
2017-08-19T07:32:58.191Z,25.06
2017-08-19T07:33:58.216Z,25.38
2017-08-19T07:34:58.245Z,25.48
2017-08-19T07:35:58.267Z,25.60
2017-08-19T07:36:58.294Z,25.77
2017-08-19T07:37:58.332Z,25.83
2017-08-19T07:38:58.587Z,25.98
2017-08-19T07:39:58.367Z,25.69
2017-08-19T07:40:58.396Z,25.59
2017-08-19T07:41:58.423Z,25.81
2017-08-19T07:42:58.451Z,26.09
2017-08-19T07:43:58.473Z,26.74
2017-08-19T07:44:58.500Z,25.81
2017-08-19T07:45:58.524Z,26.65
2017-08-19T07:46:58.553Z,26.59
2017-08-19T07:47:58.581Z,27.11
2017-08-19T07:48:58.599Z,26.99
2017-08-19T07:49:58.631Z,26.62
2017-08-19T07:50:58.654Z,26.10
2017-08-19T07:51:58.680Z,26.71
2017-08-19T07:52:58.709Z,25.44
2017-08-19T07:53:58.729Z,26.90
2017-08-19T07:54:58.764Z,27.55
2017-08-19T07:55:58.781Z,26.97
2017-08-19T07:56:58.806Z,26.65
2017-08-19T07:57:58.831Z,27.05
2017-08-19T07:58:58.856Z,27.92
2017-08-19T07:59:58.880Z,28.14
2017-08-19T08:00:58.907Z,28.57
2017-08-19T08:01:58.935Z,27.96
2017-08-19T08:02:58.966Z,26.63
2017-08-19T08:03:58.987Z,26.99
2017-08-19T08:04:59.008Z,28.00
2017-08-19T08:05:59.037Z,28.44
2017-08-19T08:06:59.062Z,28.63
2017-08-19T08:07:59.088Z,27.58
2017-08-19T08:08:59.114Z,27.58
2017-08-19T08:09:59.138Z,27.86
2017-08-19T08:10:59.165Z,28.27
2017-08-19T08:11:59.187Z,28.54
2017-08-19T08:12:59.215Z,28.62
2017-08-19T08:13:59.241Z,28.37
2017-08-19T08:14:59.266Z,27.68
2017-08-19T08:15:59.290Z,28.07
2017-08-19T08:16:59.320Z,28.26
2017-08-19T08:17:59.353Z,28.29
2017-08-19T08:18:59.371Z,28.32
2017-08-19T08:19:59.396Z,28.26
2017-08-19T08:20:59.425Z,28.17
2017-08-19T08:21:59.446Z,27.35
2017-08-19T08:22:59.470Z,27.51
2017-08-19T08:23:59.495Z,27.44
2017-08-19T08:24:59.523Z,27.63
2017-08-19T08:25:59.548Z,27.30
2017-08-19T08:26:59.573Z,27.35
2017-08-19T08:27:59.601Z,27.12
2017-08-19T08:28:59.625Z,26.78
2017-08-19T08:29:59.652Z,26.51
2017-08-19T08:30:59.674Z,25.91
2017-08-19T08:31:59.699Z,25.66
2017-08-19T08:32:59.732Z,25.44
2017-08-19T08:33:59.752Z,25.23
2017-08-19T08:34:59.777Z,25.06
2017-08-19T08:35:59.811Z,24.84
2017-08-19T08:36:59.847Z,24.63
2017-08-19T08:37:59.852Z,24.53
2017-08-19T08:38:59.879Z,24.33
2017-08-19T08:39:59.921Z,24.29
2017-08-19T08:40:59.933Z,24.28
2017-08-19T08:41:59.961Z,24.18
2017-08-19T08:42:59.978Z,24.13
2017-08-19T08:44:00.005Z,24.10
2017-08-19T08:45:00.032Z,24.08
2017-08-19T08:46:00.059Z,24.10
2017-08-19T08:47:00.083Z,24.13
2017-08-19T08:48:00.106Z,24.11
2017-08-19T08:49:00.173Z,24.05
2017-08-19T08:50:00.158Z,24.05
2017-08-19T08:51:00.188Z,24.06
2017-08-19T08:52:00.213Z,24.13
2017-08-19T08:53:00.260Z,24.10
2017-08-19T08:54:00.254Z,24.02
2017-08-19T08:55:00.282Z,23.92
2017-08-19T08:56:00.304Z,23.84
2017-08-19T08:57:00.336Z,23.95
2017-08-19T08:58:00.355Z,23.91
2017-08-19T08:59:00.428Z,23.92
2017-08-19T09:00:00.447Z,23.91
2017-08-19T09:01:00.436Z,23.92
2017-08-19T09:02:00.459Z,23.86
2017-08-19T09:03:00.484Z,23.91
2017-08-19T09:04:00.508Z,23.84
2017-08-19T09:05:00.540Z,23.92
2017-08-19T09:06:00.565Z,23.95
2017-08-19T09:07:00.584Z,23.86
2017-08-19T09:08:00.609Z,23.83
2017-08-19T09:09:00.634Z,23.88
2017-08-19T09:10:00.659Z,23.88
2017-08-19T09:11:00.681Z,23.86
2017-08-19T09:12:00.713Z,23.83
2017-08-19T09:13:00.733Z,23.80
2017-08-19T09:14:00.760Z,23.86
2017-08-19T09:15:00.791Z,23.86
2017-08-19T09:16:00.808Z,23.91
2017-08-19T09:17:00.834Z,23.84
2017-08-19T09:18:00.858Z,23.73
2017-08-19T09:19:00.882Z,23.71
2017-08-19T09:20:00.911Z,23.78
2017-08-19T09:21:00.937Z,23.86
2017-08-19T09:22:00.959Z,23.81
2017-08-19T09:23:00.984Z,23.88
2017-08-19T09:24:01.007Z,23.86
2017-08-19T09:25:01.034Z,23.77
2017-08-19T09:26:01.060Z,23.81
2017-08-19T09:27:01.082Z,23.77
2017-08-19T09:28:01.107Z,23.88
2017-08-19T09:29:01.136Z,23.88
2017-08-19T09:30:01.158Z,23.93
2017-08-19T09:31:01.185Z,23.93
2017-08-19T09:32:01.212Z,23.92
2017-08-19T09:33:01.238Z,23.93
2017-08-19T09:34:01.264Z,23.87
2017-08-19T09:35:01.289Z,23.91
2017-08-19T09:36:01.312Z,23.81
2017-08-19T09:37:01.336Z,23.86
2017-08-19T09:38:01.361Z,23.81
2017-08-19T09:39:01.392Z,23.73
2017-08-19T09:40:01.410Z,23.77
2017-08-19T12:50:39.909Z,23.61
2017-08-19T12:51:39.916Z,23.58
2017-08-19T12:53:32.854Z,23.48
2017-08-19T12:54:32.889Z,23.40
2017-08-19T12:56:28.235Z,23.40
2017-08-19T12:57:28.219Z,23.43
2017-08-19T12:59:21.130Z,23.43
2017-08-19T13:00:21.160Z,23.40
2017-08-19T13:02:14.121Z,23.44
2017-08-19T13:03:14.107Z,23.47
2017-08-19T13:05:07.120Z,23.51
2017-08-19T13:06:07.076Z,23.55
2017-08-19T13:08:00.080Z,23.58
2017-08-19T13:09:00.057Z,23.62
2017-08-19T13:10:53.055Z,23.73
2017-08-19T13:11:53.067Z,23.73
2017-08-19T13:13:46.085Z,23.74
2017-08-19T13:14:46.080Z,23.73
2017-08-19T13:16:39.078Z,23.68
2017-08-19T13:17:39.080Z,23.74
2017-08-19T13:19:32.531Z,23.73
2017-08-19T13:20:32.523Z,23.61
2017-08-19T13:22:26.581Z,23.59
2017-08-19T13:23:26.546Z,23.55
2017-08-19T13:25:19.498Z,23.47
2017-08-19T13:26:19.538Z,23.54
2017-08-19T13:28:12.556Z,23.46
2017-08-19T13:29:12.529Z,23.50
2017-08-19T13:31:05.438Z,23.48
2017-08-19T13:32:05.478Z,23.54
2017-08-19T13:33:58.455Z,23.48
2017-08-19T13:34:58.418Z,23.50
2017-08-19T13:36:52.390Z,23.47
2017-08-19T13:37:52.381Z,23.50
2017-08-19T13:39:46.363Z,23.54
2017-08-19T13:40:46.366Z,23.46
2017-08-19T13:42:39.722Z,23.47
2017-08-19T13:43:39.323Z,23.51
2017-08-19T13:45:33.260Z,23.56
2017-08-19T13:46:33.275Z,23.51
2017-08-19T13:48:28.123Z,23.51
2017-08-19T13:49:28.115Z,23.40
2017-08-19T13:51:22.066Z,23.50
2017-08-19T13:52:22.064Z,23.51
2017-08-19T13:54:16.063Z,23.43
2017-08-19T13:55:16.028Z,23.51
2017-08-19T13:57:09.038Z,23.55
2017-08-19T13:58:09.072Z,23.54
2017-08-19T14:00:02.072Z,23.50
2017-08-19T14:01:02.059Z,23.51
2017-08-19T14:02:55.011Z,23.59
2017-08-19T14:03:55.037Z,23.56
2017-08-19T14:05:48.017Z,23.61
2017-08-19T14:06:48.011Z,23.59
2017-08-19T14:08:41.015Z,23.59
2017-08-19T14:09:40.992Z,23.62
2017-08-19T14:11:33.949Z,23.58
2017-08-19T14:12:33.992Z,23.59
2017-08-19T14:14:26.955Z,23.62
2017-08-19T14:15:26.949Z,23.55
2017-08-19T14:17:20.451Z,23.59
2017-08-19T14:18:19.955Z,23.62
2017-08-19T14:20:12.937Z,23.59
2017-08-19T14:21:12.940Z,23.59
2017-08-19T14:23:06.729Z,23.61
2017-08-19T14:24:06.759Z,23.61
2017-08-19T14:25:59.741Z,23.69
2017-08-19T14:26:59.731Z,23.74
2017-08-19T14:28:52.677Z,23.83
2017-08-19T14:29:52.699Z,23.84
2017-08-19T14:31:45.673Z,23.73
2017-08-19T14:32:45.664Z,23.83
2017-08-19T14:34:38.655Z,23.71
2017-08-19T14:35:38.630Z,23.61
2017-08-19T14:37:31.590Z,23.62
2017-08-19T14:38:31.613Z,23.61
2017-08-19T14:40:24.587Z,23.62
2017-08-19T14:41:24.577Z,23.58
2017-08-19T14:43:17.526Z,23.62
2017-08-19T14:44:17.542Z,23.59
2017-08-19T14:46:10.526Z,23.69
2017-08-19T14:47:10.514Z,23.73
2017-08-19T14:49:03.468Z,23.61
2017-08-19T14:50:03.481Z,23.56
2017-08-19T14:51:56.474Z,23.56
2017-08-19T14:52:56.463Z,23.56
2017-08-19T14:54:49.401Z,23.61
2017-08-19T14:55:49.428Z,23.59
2017-08-19T14:57:42.415Z,23.65
2017-08-19T14:58:42.393Z,23.65
2017-08-19T15:00:35.332Z,23.61
2017-08-19T15:01:35.357Z,23.62
2017-08-19T15:03:28.339Z,23.59
2017-08-19T15:04:28.334Z,23.62
2017-08-19T15:06:21.274Z,23.58
2017-08-19T15:07:21.292Z,23.56
2017-08-19T15:09:14.271Z,23.55
2017-08-19T15:10:14.265Z,23.62
2017-08-19T15:12:07.263Z,23.62
2017-08-19T15:13:07.229Z,23.58
2017-08-19T15:15:00.172Z,23.68
2017-08-19T15:16:00.195Z,23.65
2017-08-19T15:17:53.176Z,23.59
2017-08-19T15:18:53.172Z,23.58
2017-08-19T15:20:46.123Z,23.59
2017-08-19T15:21:46.136Z,23.62
2017-08-19T15:23:39.116Z,23.58
2017-08-19T15:24:39.103Z,23.58
2017-08-19T15:26:32.048Z,23.63
2017-08-19T15:27:32.069Z,23.61
2017-08-19T15:29:25.077Z,23.56
2017-08-19T15:30:25.052Z,23.61
2017-08-19T15:32:18.027Z,23.50
2017-08-19T15:33:18.015Z,23.59
2017-08-19T15:35:11.955Z,23.54
2017-08-19T15:36:11.972Z,23.58
2017-08-19T15:38:04.940Z,23.51
2017-08-19T15:39:04.931Z,23.55
2017-08-19T15:40:57.887Z,23.47
2017-08-19T15:41:57.906Z,23.43
2017-08-19T15:43:50.895Z,23.51
2017-08-19T15:44:50.877Z,23.54
2017-08-19T15:46:43.824Z,23.50
2017-08-19T15:47:43.844Z,23.43
2017-08-19T15:49:36.839Z,23.47
2017-08-19T15:50:36.811Z,23.44
2017-08-19T15:52:29.755Z,23.46
2017-08-19T15:53:29.774Z,23.43
2017-08-19T15:55:22.750Z,23.55
2017-08-19T15:56:22.743Z,23.40
2017-08-19T15:58:15.729Z,23.48
2017-08-19T15:59:15.700Z,23.44
2017-08-19T16:01:08.651Z,23.54
2017-08-19T16:02:08.670Z,23.63
2017-08-19T16:04:02.642Z,23.71
2017-08-19T16:05:02.629Z,23.69
2017-08-19T16:06:55.568Z,23.78
2017-08-19T16:07:55.589Z,23.74
2017-08-19T16:09:48.570Z,23.61
2017-08-19T16:10:48.561Z,23.58
2017-08-19T16:12:41.502Z,23.56
2017-08-19T16:13:41.521Z,23.48
2017-08-19T16:15:34.500Z,23.47
2017-08-19T16:16:34.494Z,23.51
2017-08-19T16:18:27.436Z,23.41
2017-08-19T16:19:27.459Z,23.41
2017-08-19T16:21:20.438Z,23.40
2017-08-19T16:22:20.427Z,23.43
2017-08-19T16:24:13.403Z,23.46
2017-08-19T16:25:13.394Z,23.40
2017-08-19T16:27:06.343Z,23.39
2017-08-19T16:28:06.366Z,23.41
2017-08-19T16:29:59.339Z,23.40
2017-08-19T16:30:59.330Z,23.47
2017-08-19T16:32:52.279Z,23.44
2017-08-19T16:33:52.299Z,23.43
2017-08-19T16:35:45.312Z,23.41
2017-08-19T16:36:45.284Z,23.41
2017-08-19T16:38:38.243Z,23.43
2017-08-19T16:39:38.260Z,23.37
2017-08-19T16:41:31.292Z,23.34
2017-08-19T16:42:31.234Z,23.36
2017-08-19T16:44:24.213Z,23.37
2017-08-19T16:45:24.186Z,23.32
2017-08-19T16:47:17.632Z,23.40
2017-08-19T16:48:17.650Z,23.31
2017-08-19T16:50:10.644Z,23.20
2017-08-19T16:51:10.617Z,23.20
2017-08-19T16:53:03.564Z,23.27
2017-08-19T16:54:03.585Z,23.32
2017-08-19T16:55:56.580Z,23.32
2017-08-19T16:56:56.713Z,23.24
2017-08-19T16:58:49.515Z,23.27
2017-08-19T16:59:49.531Z,23.31
2017-08-19T17:01:42.515Z,23.34
2017-08-19T17:02:42.510Z,23.20
2017-08-19T17:04:35.449Z,23.24
2017-08-19T17:05:35.473Z,23.21
2017-08-19T17:07:28.449Z,23.23
2017-08-19T17:08:28.437Z,23.27
2017-08-19T17:10:21.387Z,23.18
2017-08-19T17:11:21.405Z,23.27
2017-08-19T17:13:14.387Z,23.15
2017-08-19T17:14:14.378Z,23.15
2017-08-19T17:16:07.380Z,23.12
2017-08-19T17:17:07.349Z,23.13
2017-08-19T17:19:00.323Z,23.25
2017-08-19T17:20:00.334Z,23.25
2017-08-19T17:21:53.305Z,23.15
2017-08-19T17:22:53.338Z,23.10
2017-08-19T17:24:46.245Z,23.28
2017-08-19T17:25:46.259Z,23.12
2017-08-19T17:27:39.252Z,23.08